sensor_id;sensor_type;location;lat;lon;timestamp;pressure;altitude;pressure_sealevel;temperature;humidity
38630;BME280;24384;51.988;4.644;2023-02-16T00:00:28;102490.34;;;5.49;81.78
38630;BME280;24384;51.988;4.644;2023-02-16T00:02:54;102485.94;;;5.48;81.31
38630;BME280;24384;51.988;4.644;2023-02-16T00:05:25;102479.75;;;5.41;81.85
38630;BME280;24384;51.988;4.644;2023-02-16T00:07:51;102479.78;;;5.43;81.90
38630;BME280;24384;51.988;4.644;2023-02-16T00:10:17;102487.56;;;5.38;82.11
38630;BME280;24384;51.988;4.644;2023-02-16T00:12:42;102486.72;;;5.42;81.85
38630;BME280;24384;51.988;4.644;2023-02-16T00:15:26;102481.50;;;5.42;82.07
38630;BME280;24384;51.988;4.644;2023-02-16T00:17:53;102490.28;;;5.44;82.12
38630;BME280;24384;51.988;4.644;2023-02-16T00:20:19;102478.00;;;5.42;82.29
38630;BME280;24384;51.988;4.644;2023-02-16T00:22:44;102482.38;;;5.41;81.93
38630;BME280;24384;51.988;4.644;2023-02-16T00:25:10;102476.28;;;5.44;81.93
38630;BME280;24384;51.988;4.644;2023-02-16T00:27:36;102476.25;;;5.42;82.02
38630;BME280;24384;51.988;4.644;2023-02-16T00:30:02;102482.34;;;5.40;81.87
38630;BME280;24384;51.988;4.644;2023-02-16T00:32:27;102482.34;;;5.40;82.23
38630;BME280;24384;51.988;4.644;2023-02-16T00:34:52;102481.38;;;5.34;82.30
38630;BME280;24384;51.988;4.644;2023-02-16T00:37:18;102477.06;;;5.35;82.32
38630;BME280;24384;51.988;4.644;2023-02-16T00:39:43;102478.75;;;5.34;81.99
38630;BME280;24384;51.988;4.644;2023-02-16T00:42:18;102477.03;;;5.33;82.30
38630;BME280;24384;51.988;4.644;2023-02-16T00:44:51;102479.63;;;5.32;82.09
38630;BME280;24384;51.988;4.644;2023-02-16T00:47:21;102470.84;;;5.30;82.16
38630;BME280;24384;51.988;4.644;2023-02-16T00:49:49;102468.19;;;5.25;82.39
38630;BME280;24384;51.988;4.644;2023-02-16T00:52:22;102470.03;;;5.34;81.99
38630;BME280;24384;51.988;4.644;2023-02-16T00:54:48;102460.41;;;5.31;81.55
38630;BME280;24384;51.988;4.644;2023-02-16T00:57:17;102465.59;;;5.25;81.96
38630;BME280;24384;51.988;4.644;2023-02-16T00:59:43;102468.22;;;5.30;81.88
38630;BME280;24384;51.988;4.644;2023-02-16T01:02:09;102464.84;;;5.35;81.51
38630;BME280;24384;51.988;4.644;2023-02-16T01:04:34;102463.03;;;5.31;81.50
38630;BME280;24384;51.988;4.644;2023-02-16T01:07:00;102460.44;;;5.33;81.30
38630;BME280;24384;51.988;4.644;2023-02-16T01:09:44;102451.72;;;5.32;81.26
38630;BME280;24384;51.988;4.644;2023-02-16T01:12:28;102454.28;;;5.29;81.73
38630;BME280;24384;51.988;4.644;2023-02-16T01:14:54;102459.47;;;5.26;81.80
38630;BME280;24384;51.988;4.644;2023-02-16T01:17:20;102453.38;;;5.27;82.04
38630;BME280;24384;51.988;4.644;2023-02-16T01:19:46;102461.31;;;5.33;81.60
38630;BME280;24384;51.988;4.644;2023-02-16T01:22:11;102451.88;;;5.45;81.34
38630;BME280;24384;51.988;4.644;2023-02-16T01:24:36;102452.72;;;5.42;81.51
38630;BME280;24384;51.988;4.644;2023-02-16T01:27:02;102451.84;;;5.42;81.70
38630;BME280;24384;51.988;4.644;2023-02-16T01:29:27;102447.59;;;5.50;81.29
38630;BME280;24384;51.988;4.644;2023-02-16T01:31:53;102442.41;;;5.54;81.05
38630;BME280;24384;51.988;4.644;2023-02-16T01:34:18;102450.25;;;5.53;80.95
38630;BME280;24384;51.988;4.644;2023-02-16T01:36:46;102441.59;;;5.59;80.65
38630;BME280;24384;51.988;4.644;2023-02-16T01:39:13;102451.16;;;5.55;80.41
38630;BME280;24384;51.988;4.644;2023-02-16T01:42:08;102441.59;;;5.57;80.20
38630;BME280;24384;51.988;4.644;2023-02-16T01:44:43;102443.34;;;5.58;80.18
38630;BME280;24384;51.988;4.644;2023-02-16T01:47:33;102450.25;;;5.54;80.59
38630;BME280;24384;51.988;4.644;2023-02-16T01:50:32;102438.97;;;5.57;79.79
38630;BME280;24384;51.988;4.644;2023-02-16T01:53:08;102437.19;;;5.54;80.24
38630;BME280;24384;51.988;4.644;2023-02-16T01:55:40;102437.19;;;5.56;80.35
38630;BME280;24384;51.988;4.644;2023-02-16T01:58:16;102431.94;;;5.54;79.82
38630;BME280;24384;51.988;4.644;2023-02-16T02:03:25;102446.06;;;5.64;79.31
38630;BME280;24384;51.988;4.644;2023-02-16T02:06:14;102438.34;;;5.77;78.37
38630;BME280;24384;51.988;4.644;2023-02-16T02:11:35;102434.75;;;5.70;79.23
38630;BME280;24384;51.988;4.644;2023-02-16T02:14:07;102433.03;;;5.69;78.87
38630;BME280;24384;51.988;4.644;2023-02-16T02:16:35;102430.38;;;5.67;78.75
38630;BME280;24384;51.988;4.644;2023-02-16T02:19:00;102426.88;;;5.67;78.51
38630;BME280;24384;51.988;4.644;2023-02-16T02:24:52;102421.66;;;5.68;78.67
38630;BME280;24384;51.988;4.644;2023-02-16T02:27:24;102423.38;;;5.66;78.21
38630;BME280;24384;51.988;4.644;2023-02-16T02:33:26;102402.56;;;5.76;77.89
38630;BME280;24384;51.988;4.644;2023-02-16T02:41:57;102389.44;;;5.74;77.59
38630;BME280;24384;51.988;4.644;2023-02-16T02:44:33;102404.31;;;5.77;77.43
38630;BME280;24384;51.988;4.644;2023-02-16T02:47:00;102385.06;;;5.74;77.74
38630;BME280;24384;51.988;4.644;2023-02-16T02:49:26;102376.38;;;5.76;77.94
38630;BME280;24384;51.988;4.644;2023-02-16T02:51:51;102393.88;;;5.80;77.25
38630;BME280;24384;51.988;4.644;2023-02-16T02:54:26;102382.63;;;5.88;77.18
38630;BME280;24384;51.988;4.644;2023-02-16T03:00:09;102382.63;;;5.90;77.74
38630;BME280;24384;51.988;4.644;2023-02-16T03:03:00;102383.50;;;5.89;77.38
38630;BME280;24384;51.988;4.644;2023-02-16T03:05:30;102370.44;;;5.92;77.04
38630;BME280;24384;51.988;4.644;2023-02-16T03:08:02;102362.59;;;5.92;76.51
38630;BME280;24384;51.988;4.644;2023-02-16T03:10:32;102367.88;;;5.95;76.86
38630;BME280;24384;51.988;4.644;2023-02-16T03:13:26;102367.88;;;5.95;77.28
38630;BME280;24384;51.988;4.644;2023-02-16T03:15:55;102374.06;;;6.00;76.17
38630;BME280;24384;51.988;4.644;2023-02-16T03:18:24;102363.53;;;5.97;76.43
38630;BME280;24384;51.988;4.644;2023-02-16T03:21:11;102364.44;;;6.01;76.37
38630;BME280;24384;51.988;4.644;2023-02-16T03:23:59;102375.81;;;6.00;76.61
38630;BME280;24384;51.988;4.644;2023-02-16T03:26:44;102379.28;;;6.00;76.77
38630;BME280;24384;51.988;4.644;2023-02-16T03:29:29;102377.53;;;6.01;76.38
38630;BME280;24384;51.988;4.644;2023-02-16T03:31:56;102374.03;;;5.97;76.85
38630;BME280;24384;51.988;4.644;2023-02-16T03:34:22;102372.31;;;6.02;76.66
38630;BME280;24384;51.988;4.644;2023-02-16T03:36:50;102374.03;;;5.97;77.13
38630;BME280;24384;51.988;4.644;2023-02-16T03:39:16;102368.78;;;5.97;77.64
38630;BME280;24384;51.988;4.644;2023-02-16T03:41:46;102374.06;;;6.00;77.00
38630;BME280;24384;51.988;4.644;2023-02-16T03:44:13;102374.94;;;6.02;76.78
38630;BME280;24384;51.988;4.644;2023-02-16T03:46:38;102378.44;;;6.01;77.49
38630;BME280;24384;51.988;4.644;2023-02-16T03:49:03;102367.97;;;6.01;77.13
38630;BME280;24384;51.988;4.644;2023-02-16T03:51:28;102370.59;;;6.03;77.07
38630;BME280;24384;51.988;4.644;2023-02-16T03:53:55;102371.47;;;6.03;76.89
38630;BME280;24384;51.988;4.644;2023-02-16T03:56:21;102365.38;;;6.03;77.32
38630;BME280;24384;51.988;4.644;2023-02-16T03:58:46;102361.84;;;6.04;77.06
38630;BME280;24384;51.988;4.644;2023-02-16T04:01:11;102357.59;;;6.12;77.06
38630;BME280;24384;51.988;4.644;2023-02-16T04:03:37;102360.16;;;6.06;77.47
38630;BME280;24384;51.988;4.644;2023-02-16T04:06:02;102358.41;;;6.06;77.70
38630;BME280;24384;51.988;4.644;2023-02-16T04:08:28;102366.22;;;6.03;78.13
38630;BME280;24384;51.988;4.644;2023-02-16T04:10:53;102363.56;;;6.00;78.27
38630;BME280;24384;51.988;4.644;2023-02-16T04:13:20;102368.78;;;5.97;77.84
38630;BME280;24384;51.988;4.644;2023-02-16T04:15:46;102375.78;;;5.98;78.22
38630;BME280;24384;51.988;4.644;2023-02-16T04:18:11;102373.19;;;6.01;77.65
38630;BME280;24384;51.988;4.644;2023-02-16T04:20:36;102387.16;;;6.00;78.18
38630;BME280;24384;51.988;4.644;2023-02-16T04:23:02;102384.53;;;6.02;77.87
38630;BME280;24384;51.988;4.644;2023-02-16T04:25:28;102385.41;;;6.02;77.85
38630;BME280;24384;51.988;4.644;2023-02-16T04:27:54;102377.47;;;5.96;79.28
38630;BME280;24384;51.988;4.644;2023-02-16T04:30:22;102374.78;;;5.91;79.17
38630;BME280;24384;51.988;4.644;2023-02-16T04:32:48;102376.53;;;5.91;79.18
38630;BME280;24384;51.988;4.644;2023-02-16T04:35:14;102370.47;;;5.94;79.17
38630;BME280;24384;51.988;4.644;2023-02-16T04:37:39;102368.66;;;5.89;79.13
38630;BME280;24384;51.988;4.644;2023-02-16T04:40:06;102368.69;;;5.91;79.21
38630;BME280;24384;51.988;4.644;2023-02-16T04:42:32;102368.66;;;5.88;79.05
38630;BME280;24384;51.988;4.644;2023-02-16T04:44:57;102365.13;;;5.83;79.80
38630;BME280;24384;51.988;4.644;2023-02-16T04:47:23;102365.13;;;5.84;79.81
38630;BME280;24384;51.988;4.644;2023-02-16T04:49:51;102363.38;;;5.83;79.77
38630;BME280;24384;51.988;4.644;2023-02-16T04:52:16;102364.28;;;5.90;79.21
38630;BME280;24384;51.988;4.644;2023-02-16T04:54:41;102365.13;;;5.83;79.46
38630;BME280;24384;51.988;4.644;2023-02-16T04:57:07;102370.41;;;5.87;79.51
38630;BME280;24384;51.988;4.644;2023-02-16T04:59:33;102366.91;;;5.88;79.25
38630;BME280;24384;51.988;4.644;2023-02-16T05:01:58;102365.19;;;5.89;79.49
38630;BME280;24384;51.988;4.644;2023-02-16T05:04:24;102359.03;;;5.88;79.15
38630;BME280;24384;51.988;4.644;2023-02-16T05:06:49;102357.34;;;5.90;79.34
38630;BME280;24384;51.988;4.644;2023-02-16T05:09:15;102352.03;;;5.83;79.82
38630;BME280;24384;51.988;4.644;2023-02-16T05:11:40;102360.75;;;5.85;79.40
38630;BME280;24384;51.988;4.644;2023-02-16T05:14:26;102354.63;;;5.83;79.90
38630;BME280;24384;51.988;4.644;2023-02-16T05:17:15;102358.13;;;5.83;79.60
38630;BME280;24384;51.988;4.644;2023-02-16T05:19:43;102353.72;;;5.81;79.90
38630;BME280;24384;51.988;4.644;2023-02-16T05:22:09;102344.16;;;5.81;80.44
38630;BME280;24384;51.988;4.644;2023-02-16T05:24:36;102341.53;;;5.80;80.56
38630;BME280;24384;51.988;4.644;2023-02-16T05:27:04;102340.59;;;5.76;80.42
38630;BME280;24384;51.988;4.644;2023-02-16T05:29:29;102347.56;;;5.76;80.46
38630;BME280;24384;51.988;4.644;2023-02-16T05:31:55;102337.13;;;5.79;80.99
38630;BME280;24384;51.988;4.644;2023-02-16T05:34:20;102338.88;;;5.78;80.67
38630;BME280;24384;51.988;4.644;2023-02-16T05:36:45;102346.72;;;5.77;81.03
38630;BME280;24384;51.988;4.644;2023-02-16T05:39:11;102340.59;;;5.78;80.69
38630;BME280;24384;51.988;4.644;2023-02-16T05:41:36;102338.00;;;5.81;80.86
38630;BME280;24384;51.988;4.644;2023-02-16T05:44:02;102340.63;;;5.81;80.30
38630;BME280;24384;51.988;4.644;2023-02-16T05:46:31;102345.00;;;5.79;80.83
38630;BME280;24384;51.988;4.644;2023-02-16T05:48:57;102353.78;;;5.87;80.29
38630;BME280;24384;51.988;4.644;2023-02-16T05:51:23;102363.47;;;5.92;80.12
38630;BME280;24384;51.988;4.644;2023-02-16T05:53:48;102358.22;;;5.91;80.54
38630;BME280;24384;51.988;4.644;2023-02-16T05:56:14;102355.59;;;5.91;80.88
38630;BME280;24384;51.988;4.644;2023-02-16T05:58:40;102354.78;;;5.95;80.32
38630;BME280;24384;51.988;4.644;2023-02-16T06:01:06;102354.75;;;5.92;80.88
38630;BME280;24384;51.988;4.644;2023-02-16T06:03:31;102350.38;;;5.92;80.77
38630;BME280;24384;51.988;4.644;2023-02-16T06:05:59;102345.22;;;5.99;80.36
38630;BME280;24384;51.988;4.644;2023-02-16T06:08:25;102341.75;;;5.98;80.86
38630;BME280;24384;51.988;4.644;2023-02-16T06:10:52;102353.94;;;5.99;81.08
38630;BME280;24384;51.988;4.644;2023-02-16T06:13:18;102352.25;;;6.01;80.79
38630;BME280;24384;51.988;4.644;2023-02-16T06:15:44;102338.28;;;6.05;80.40
38630;BME280;24384;51.988;4.644;2023-02-16T06:18:10;102343.56;;;6.08;80.42
38630;BME280;24384;51.988;4.644;2023-02-16T06:20:40;102338.28;;;6.04;80.58
38630;BME280;24384;51.988;4.644;2023-02-16T06:23:06;102333.06;;;6.05;80.64
38630;BME280;24384;51.988;4.644;2023-02-16T06:25:32;102342.72;;;6.09;80.27
38630;BME280;24384;51.988;4.644;2023-02-16T06:27:58;102351.41;;;6.07;80.80
38630;BME280;24384;51.988;4.644;2023-02-16T06:30:24;102354.03;;;6.08;80.70
38630;BME280;24384;51.988;4.644;2023-02-16T06:32:49;102347.09;;;6.11;80.65
38630;BME280;24384;51.988;4.644;2023-02-16T06:35:15;102359.31;;;6.12;80.49
38630;BME280;24384;51.988;4.644;2023-02-16T06:37:40;102356.75;;;6.18;80.47
38630;BME280;24384;51.988;4.644;2023-02-16T06:40:06;102359.38;;;6.19;80.51
38630;BME280;24384;51.988;4.644;2023-02-16T06:42:34;102355.88;;;6.16;80.75
38630;BME280;24384;51.988;4.644;2023-02-16T06:45:00;102360.25;;;6.17;80.40
38630;BME280;24384;51.988;4.644;2023-02-16T06:47:25;102357.69;;;6.23;80.35
38630;BME280;24384;51.988;4.644;2023-02-16T06:49:50;102360.34;;;6.24;80.41
38630;BME280;24384;51.988;4.644;2023-02-16T06:52:15;102363.81;;;6.25;79.98
38630;BME280;24384;51.988;4.644;2023-02-16T06:54:41;102369.03;;;6.22;80.71
38630;BME280;24384;51.988;4.644;2023-02-16T06:57:06;102374.28;;;6.23;80.27
38630;BME280;24384;51.988;4.644;2023-02-16T06:59:31;102369.13;;;6.31;79.83
38630;BME280;24384;51.988;4.644;2023-02-16T07:01:56;102381.31;;;6.27;80.27
38630;BME280;24384;51.988;4.644;2023-02-16T07:04:22;102376.06;;;6.26;80.42
38630;BME280;24384;51.988;4.644;2023-02-16T07:06:47;102380.44;;;6.30;79.87
38630;BME280;24384;51.988;4.644;2023-02-16T07:09:12;102380.47;;;6.32;80.07
38630;BME280;24384;51.988;4.644;2023-02-16T07:11:37;102385.69;;;6.30;80.51
38630;BME280;24384;51.988;4.644;2023-02-16T07:14:03;102375.19;;;6.28;80.30
38630;BME280;24384;51.988;4.644;2023-02-16T07:16:28;102385.72;;;6.33;80.76
38630;BME280;24384;51.988;4.644;2023-02-16T07:18:53;102383.97;;;6.29;80.01
38630;BME280;24384;51.988;4.644;2023-02-16T07:21:19;102381.31;;;6.26;80.71
38630;BME280;24384;51.988;4.644;2023-02-16T07:23:44;102383.06;;;6.28;80.38
38630;BME280;24384;51.988;4.644;2023-02-16T07:26:10;102379.59;;;6.30;80.63
38630;BME280;24384;51.988;4.644;2023-02-16T07:28:35;102382.25;;;6.36;80.12
38630;BME280;24384;51.988;4.644;2023-02-16T07:31:13;102387.50;;;6.34;80.65
38630;BME280;24384;51.988;4.644;2023-02-16T07:33:38;102390.94;;;6.30;80.46
38630;BME280;24384;51.988;4.644;2023-02-16T07:36:04;102394.47;;;6.34;80.45
38630;BME280;24384;51.988;4.644;2023-02-16T07:38:30;102388.28;;;6.27;80.16
38630;BME280;24384;51.988;4.644;2023-02-16T07:40:56;102397.13;;;6.35;80.26
38630;BME280;24384;51.988;4.644;2023-02-16T07:43:22;102404.00;;;6.27;80.79
38630;BME280;24384;51.988;4.644;2023-02-16T07:45:48;102401.44;;;6.33;80.50
38630;BME280;24384;51.988;4.644;2023-02-16T07:48:14;102405.78;;;6.28;80.08
38630;BME280;24384;51.988;4.644;2023-02-16T07:50:39;102408.38;;;6.26;80.43
38630;BME280;24384;51.988;4.644;2023-02-16T07:53:04;102412.78;;;6.29;80.62
38630;BME280;24384;51.988;4.644;2023-02-16T07:55:30;102416.28;;;6.33;80.51
38630;BME280;24384;51.988;4.644;2023-02-16T07:57:55;102418.91;;;6.31;80.84
38630;BME280;24384;51.988;4.644;2023-02-16T08:00:24;102422.41;;;6.33;80.98
38630;BME280;24384;51.988;4.644;2023-02-16T08:02:50;102418.94;;;6.36;80.70
38630;BME280;24384;51.988;4.644;2023-02-16T08:05:16;102421.59;;;6.37;81.00
38630;BME280;24384;51.988;4.644;2023-02-16T08:07:41;102423.34;;;6.38;80.69
38630;BME280;24384;51.988;4.644;2023-02-16T08:10:07;102425.03;;;6.33;80.77
38630;BME280;24384;51.988;4.644;2023-02-16T08:12:33;102428.59;;;6.40;81.00
38630;BME280;24384;51.988;4.644;2023-02-16T08:14:58;102425.94;;;6.35;81.56
38630;BME280;24384;51.988;4.644;2023-02-16T08:17:23;102425.09;;;6.39;81.68
38630;BME280;24384;51.988;4.644;2023-02-16T08:19:49;102425.03;;;6.33;82.48
38630;BME280;24384;51.988;4.644;2023-02-16T08:22:16;102423.25;;;6.29;82.92
38630;BME280;24384;51.988;4.644;2023-02-16T08:24:42;102436.41;;;6.32;83.14
38630;BME280;24384;51.988;4.644;2023-02-16T08:27:07;102442.47;;;6.28;83.19
38630;BME280;24384;51.988;4.644;2023-02-16T08:29:33;102435.50;;;6.32;83.31
38630;BME280;24384;51.988;4.644;2023-02-16T08:31:59;102428.50;;;6.31;84.03
38630;BME280;24384;51.988;4.644;2023-02-16T08:34:24;102446.84;;;6.29;84.19
38630;BME280;24384;51.988;4.644;2023-02-16T08:36:52;102438.13;;;6.33;84.89
38630;BME280;24384;51.988;4.644;2023-02-16T08:39:21;102439.91;;;6.36;85.10
38630;BME280;24384;51.988;4.644;2023-02-16T08:41:48;102438.06;;;6.27;85.85
38630;BME280;24384;51.988;4.644;2023-02-16T08:44:14;102444.94;;;6.16;86.93
38630;BME280;24384;51.988;4.644;2023-02-16T08:46:42;102433.63;;;6.18;86.89
38630;BME280;24384;51.988;4.644;2023-02-16T08:49:08;102434.47;;;6.16;87.02
38630;BME280;24384;51.988;4.644;2023-02-16T08:51:36;102434.50;;;6.19;87.63
38630;BME280;24384;51.988;4.644;2023-02-16T08:54:04;102437.06;;;6.14;88.18
38630;BME280;24384;51.988;4.644;2023-02-16T08:56:30;102434.44;;;6.13;88.42
38630;BME280;24384;51.988;4.644;2023-02-16T08:58:57;102444.91;;;6.11;88.50
38630;BME280;24384;51.988;4.644;2023-02-16T09:01:22;102433.63;;;6.17;88.85
38630;BME280;24384;51.988;4.644;2023-02-16T09:03:48;102439.81;;;6.25;88.21
38630;BME280;24384;51.988;4.644;2023-02-16T09:06:15;102439.81;;;6.26;89.06
38630;BME280;24384;51.988;4.644;2023-02-16T09:08:42;102440.75;;;6.33;88.71
38630;BME280;24384;51.988;4.644;2023-02-16T09:11:12;102434.66;;;6.34;88.50
38630;BME280;24384;51.988;4.644;2023-02-16T09:13:38;102442.59;;;6.42;88.71
38630;BME280;24384;51.988;4.644;2023-02-16T09:16:09;102427.72;;;6.39;88.91
38630;BME280;24384;51.988;4.644;2023-02-16T09:18:35;102434.75;;;6.43;89.21
38630;BME280;24384;51.988;4.644;2023-02-16T09:21:09;102431.31;;;6.48;88.70
38630;BME280;24384;51.988;4.644;2023-02-16T09:23:36;102431.28;;;6.44;88.88
38630;BME280;24384;51.988;4.644;2023-02-16T09:26:02;102433.00;;;6.45;88.93
38630;BME280;24384;51.988;4.644;2023-02-16T09:28:31;102430.38;;;6.45;89.11
38630;BME280;24384;51.988;4.644;2023-02-16T09:30:58;102430.44;;;6.50;89.28
38630;BME280;24384;51.988;4.644;2023-02-16T09:33:24;102442.69;;;6.51;89.15
38630;BME280;24384;51.988;4.644;2023-02-16T09:35:50;102441.91;;;6.61;89.64
38630;BME280;24384;51.988;4.644;2023-02-16T09:38:15;102438.38;;;6.61;89.37
38630;BME280;24384;51.988;4.644;2023-02-16T09:40:42;102444.59;;;6.68;88.94
38630;BME280;24384;51.988;4.644;2023-02-16T09:45:44;102435.94;;;6.81;88.85
38630;BME280;24384;51.988;4.644;2023-02-16T09:48:22;102418.53;;;6.86;88.90
38630;BME280;24384;51.988;4.644;2023-02-16T09:50:49;102422.94;;;6.95;89.02
38630;BME280;24384;51.988;4.644;2023-02-16T09:53:38;102425.75;;;7.23;88.49
38630;BME280;24384;51.988;4.644;2023-02-16T09:56:24;102417.00;;;7.22;88.18
38630;BME280;24384;51.988;4.644;2023-02-16T09:59:02;102424.06;;;7.32;88.30
38630;BME280;24384;51.988;4.644;2023-02-16T10:01:47;102417.09;;;7.38;88.49
38630;BME280;24384;51.988;4.644;2023-02-16T10:09:52;102421.53;;;7.49;87.73
38630;BME280;24384;51.988;4.644;2023-02-16T10:12:26;102413.69;;;7.54;86.99
38630;BME280;24384;51.988;4.644;2023-02-16T10:15:03;102417.16;;;7.50;87.45
38630;BME280;24384;51.988;4.644;2023-02-16T10:20:15;102412.75;;;7.47;88.04
38630;BME280;24384;51.988;4.644;2023-02-16T10:22:54;102407.56;;;7.57;87.52
38630;BME280;24384;51.988;4.644;2023-02-16T10:25:31;102404.09;;;7.61;87.06
38630;BME280;24384;51.988;4.644;2023-02-16T10:28:12;102399.69;;;7.63;87.01
38630;BME280;24384;51.988;4.644;2023-02-16T10:30:47;102398.00;;;7.74;86.71
38630;BME280;24384;51.988;4.644;2023-02-16T10:36:02;102414.59;;;7.67;87.35
38630;BME280;24384;51.988;4.644;2023-02-16T10:38:42;102402.38;;;7.75;87.38
38630;BME280;24384;51.988;4.644;2023-02-16T10:41:30;102414.63;;;7.71;87.46
38630;BME280;24384;51.988;4.644;2023-02-16T10:46:24;102400.69;;;7.91;87.81
38630;BME280;24384;51.988;4.644;2023-02-16T10:48:52;102411.22;;;7.99;87.56
38630;BME280;24384;51.988;4.644;2023-02-16T10:51:19;102408.59;;;7.99;87.09
38630;BME280;24384;51.988;4.644;2023-02-16T10:53:49;102408.56;;;7.89;86.96
38630;BME280;24384;51.988;4.644;2023-02-16T10:56:38;102414.72;;;8.04;87.14
38630;BME280;24384;51.988;4.644;2023-02-16T10:59:11;102406.00;;;8.08;86.78
38630;BME280;24384;51.988;4.644;2023-02-16T11:01:42;102406.88;;;8.16;86.67
38630;BME280;24384;51.988;4.644;2023-02-16T11:04:28;102413.00;;;8.12;85.77
38630;BME280;24384;51.988;4.644;2023-02-16T11:07:11;102416.56;;;8.27;86.21
38630;BME280;24384;51.988;4.644;2023-02-16T11:09:39;102401.69;;;8.53;85.60
38630;BME280;24384;51.988;4.644;2023-02-16T11:12:31;102390.25;;;9.16;83.10
38630;BME280;24384;51.988;4.644;2023-02-16T11:15:04;102387.94;;;10.29;80.69
38630;BME280;24384;51.988;4.644;2023-02-16T11:17:32;102376.69;;;11.11;76.51
38630;BME280;24384;51.988;4.644;2023-02-16T11:20:24;102380.63;;;10.68;74.52
38630;BME280;24384;51.988;4.644;2023-02-16T11:22:51;102384.81;;;10.91;74.42
38630;BME280;24384;51.988;4.644;2023-02-16T11:25:18;102386.06;;;10.48;76.56
38630;BME280;24384;51.988;4.644;2023-02-16T11:30:17;102381.88;;;10.19;78.45
38630;BME280;24384;51.988;4.644;2023-02-16T11:32:47;102382.84;;;10.04;78.94
38630;BME280;24384;51.988;4.644;2023-02-16T11:35:13;102372.19;;;10.20;78.25
38630;BME280;24384;51.988;4.644;2023-02-16T11:37:39;102379.16;;;10.35;77.72
38630;BME280;24384;51.988;4.644;2023-02-16T11:40:25;102376.53;;;10.30;79.78
38630;BME280;24384;51.988;4.644;2023-02-16T11:42:51;102378.31;;;10.22;80.27
38630;BME280;24384;51.988;4.644;2023-02-16T11:47:52;102373.09;;;10.14;80.73
38630;BME280;24384;51.988;4.644;2023-02-16T11:50:23;102366.72;;;10.51;79.59
38630;BME280;24384;51.988;4.644;2023-02-16T11:52:54;102361.06;;;10.91;77.01
38630;BME280;24384;51.988;4.644;2023-02-16T11:55:29;102362.94;;;10.77;75.72
38630;BME280;24384;51.988;4.644;2023-02-16T12:00:46;102337.63;;;11.38;76.00
38630;BME280;24384;51.988;4.644;2023-02-16T12:03:35;102335.16;;;12.50;71.18
38630;BME280;24384;51.988;4.644;2023-02-16T12:09:09;102326.19;;;12.56;68.65
38630;BME280;24384;51.988;4.644;2023-02-16T12:14:25;102327.34;;;12.42;70.09
38630;BME280;24384;51.988;4.644;2023-02-16T12:19:39;102313.88;;;13.03;69.61
38630;BME280;24384;51.988;4.644;2023-02-16T12:28:16;102285.16;;;13.67;64.21
38630;BME280;24384;51.988;4.644;2023-02-16T12:34:15;102288.19;;;13.06;66.32
38630;BME280;24384;51.988;4.644;2023-02-16T12:39:03;102292.69;;;12.56;68.19
38630;BME280;24384;51.988;4.644;2023-02-16T12:44:53;102291.00;;;12.00;69.68
38630;BME280;24384;51.988;4.644;2023-02-16T12:47:26;102293.88;;;11.83;70.68
38630;BME280;24384;51.988;4.644;2023-02-16T12:49:59;102289.38;;;11.89;69.62
38630;BME280;24384;51.988;4.644;2023-02-16T12:52:39;102285.88;;;11.87;69.93
38630;BME280;24384;51.988;4.644;2023-02-16T12:57:35;102277.53;;;11.54;71.43
38630;BME280;24384;51.988;4.644;2023-02-16T13:00:20;102271.31;;;11.58;71.81
38630;BME280;24384;51.988;4.644;2023-02-16T13:03:16;102268.84;;;11.45;70.16
38630;BME280;24384;51.988;4.644;2023-02-16T13:05:52;102266.03;;;11.59;70.45
38630;BME280;24384;51.988;4.644;2023-02-16T13:08:36;102273.31;;;11.42;71.46
38630;BME280;24384;51.988;4.644;2023-02-16T13:11:13;102259.44;;;11.24;71.73
38630;BME280;24384;51.988;4.644;2023-02-16T13:13:42;102242.19;;;10.99;71.34
38630;BME280;24384;51.988;4.644;2023-02-16T13:16:35;102240.38;;;11.02;71.31
38630;BME280;24384;51.988;4.644;2023-02-16T13:19:03;102226.34;;;11.00;71.40
38630;BME280;24384;51.988;4.644;2023-02-16T13:22:25;102235.91;;;11.06;71.87
38630;BME280;24384;51.988;4.644;2023-02-16T13:24:52;102234.22;;;11.02;71.71
38630;BME280;24384;51.988;4.644;2023-02-16T13:27:56;102227.28;;;10.95;71.75
38630;BME280;24384;51.988;4.644;2023-02-16T13:36:15;102230.22;;;10.70;71.57
38630;BME280;24384;51.988;4.644;2023-02-16T13:39:19;102207.22;;;10.78;72.78
38630;BME280;24384;51.988;4.644;2023-02-16T13:44:44;102203.06;;;10.60;71.47
38630;BME280;24384;51.988;4.644;2023-02-16T13:47:14;102205.81;;;10.51;72.65
38630;BME280;24384;51.988;4.644;2023-02-16T13:49:42;102212.00;;;10.45;73.65
38630;BME280;24384;51.988;4.644;2023-02-16T13:52:10;102197.91;;;10.48;73.43
38630;BME280;24384;51.988;4.644;2023-02-16T13:54:40;102192.53;;;10.57;74.12
38630;BME280;24384;51.988;4.644;2023-02-16T13:57:13;102191.63;;;10.58;74.49
38630;BME280;24384;51.988;4.644;2023-02-16T13:59:57;102192.72;;;10.42;73.49
38630;BME280;24384;51.988;4.644;2023-02-16T14:02:52;102177.75;;;10.44;74.79
38630;BME280;24384;51.988;4.644;2023-02-16T14:05:23;102184.88;;;10.34;74.39
38630;BME280;24384;51.988;4.644;2023-02-16T14:08:09;102183.97;;;10.39;74.34
38630;BME280;24384;51.988;4.644;2023-02-16T14:16:11;102177.66;;;10.50;75.75
38630;BME280;24384;51.988;4.644;2023-02-16T14:18:42;102173.34;;;10.46;75.00
38630;BME280;24384;51.988;4.644;2023-02-16T14:21:36;102168.94;;;10.45;76.37
38630;BME280;24384;51.988;4.644;2023-02-16T14:24:04;102162.91;;;10.35;76.04
38630;BME280;24384;51.988;4.644;2023-02-16T14:26:30;102172.66;;;10.20;77.30
38630;BME280;24384;51.988;4.644;2023-02-16T14:29:10;102182.44;;;10.12;78.25
38630;BME280;24384;51.988;4.644;2023-02-16T14:31:42;102166.66;;;10.09;77.45
38630;BME280;24384;51.988;4.644;2023-02-16T14:34:23;102174.63;;;10.01;78.58
38630;BME280;24384;51.988;4.644;2023-02-16T14:37:24;102179.03;;;10.01;79.60
38630;BME280;24384;51.988;4.644;2023-02-16T14:39:52;102174.72;;;9.92;79.14